Terminal Aerodrome Forecast
Issued by NWS Billings, MT

Home | Current Version | Previous Version | Text Only | Print | Product List | Glossary On
Versions: 1 2 3 4 5 6 7 8 9 10 11 12 13 14 15 16 17 18 19 20 21 22 23 24 25 26 27 28
000
FTUS45 KBYZ 051943 AAA
TAFMLS
TAF AMD
KMLS 051943Z 0520/0618 35011KT 4SM FU BKN030 OVC050
      TEMPO 0520/0523 6SM FU SCT025 OVC080
     FM060100 01013KT P6SM VCSH BKN050=

USA.gov is the U.S. government's official web portal to all federal, state and local government web resources and services.